createdAt,value
2019-02-05T00:01:49.149Z,99562.56
2019-02-05T00:03:59.958Z,99557.86
2019-02-05T00:06:10.868Z,99551.48
2019-02-05T00:08:21.863Z,99550.63
2019-02-05T00:10:32.653Z,99537.88
2019-02-05T00:12:43.491Z,99534.91
2019-02-05T00:14:54.279Z,99539.58
2019-02-05T00:17:05.085Z,99531.48
2019-02-05T00:19:15.902Z,99532.75
2019-02-05T00:21:26.831Z,99538.71
2019-02-05T00:23:37.634Z,99533.59
2019-02-05T00:25:48.441Z,99537.88
2019-02-05T00:27:59.324Z,99543.42
2019-02-05T00:33:09.389Z,99551.92
2019-02-05T00:35:20.188Z,99562.57
2019-02-05T00:37:31.002Z,99563.42
2019-02-05T00:39:41.994Z,99559.19
2019-02-05T00:41:52.921Z,99558.75
2019-02-05T00:44:03.713Z,99555.35
2019-02-05T00:46:16.432Z,99555.33
2019-02-05T00:48:27.254Z,99555.31
2019-02-05T00:50:38.159Z,99563.84
2019-02-05T00:52:49.071Z,99564.68
2019-02-05T00:54:59.873Z,99568.50
2019-02-05T00:57:10.804Z,99562.58
2019-02-05T01:02:14.125Z,99569.36
2019-02-05T01:04:24.943Z,99566.36
2019-02-05T01:06:35.835Z,99564.67
2019-02-05T01:08:46.652Z,99561.27
2019-02-05T01:10:57.435Z,99552.76
2019-02-05T01:13:08.365Z,99555.73
2019-02-05T01:16:00.803Z,99550.59
2019-02-05T01:18:11.613Z,99547.59
2019-02-05T01:23:14.935Z,99538.16
2019-02-05T01:25:25.726Z,99536.45
2019-02-05T01:27:36.534Z,99527.94
2019-02-05T01:29:49.257Z,99526.23
2019-02-05T01:32:00.115Z,99522.78
2019-02-05T01:34:10.915Z,99529.94
2019-02-05T01:36:21.716Z,99531.62
2019-02-05T01:38:32.526Z,99535.86
2019-02-05T01:40:56.698Z,99531.59
2019-02-05T01:43:07.548Z,99531.59
2019-02-05T01:46:00.008Z,99522.21
2019-02-05T01:48:11.117Z,99527.73
2019-02-05T01:51:03.589Z,99518.40
2019-02-05T01:53:14.383Z,99523.05
2019-02-05T01:55:25.196Z,99527.73
2019-02-05T01:57:36.090Z,99522.21
2019-02-05T01:59:46.933Z,99513.23
2019-02-05T02:01:59.645Z,99503.41
2019-02-05T02:04:10.647Z,99498.72
2019-02-05T02:06:21.492Z,99495.30
2019-02-05T02:08:32.368Z,99494.83
2019-02-05T02:10:43.295Z,99495.16
2019-02-05T02:12:54.083Z,99492.58
2019-02-05T02:15:46.564Z,99499.01
2019-02-05T02:17:57.470Z,99492.19
2019-02-05T02:20:49.925Z,99492.19
2019-02-05T02:23:00.833Z,99498.58
2019-02-05T02:25:53.322Z,99500.33
2019-02-05T02:28:04.226Z,99500.33
2019-02-05T02:30:56.703Z,99501.60
2019-02-05T02:33:07.500Z,99503.73
2019-02-05T02:35:18.617Z,99505.00
2019-02-05T02:37:29.405Z,99496.50
2019-02-05T02:39:40.204Z,99492.66
2019-02-05T02:41:51.045Z,99489.63
2019-02-05T02:44:01.981Z,99481.53
2019-02-05T02:46:12.775Z,99479.78
2019-02-05T02:48:23.581Z,99483.11
2019-02-05T02:50:34.413Z,99487.24
2019-02-05T02:52:45.245Z,99483.78
2019-02-05T02:54:56.033Z,99470.67
2019-02-05T02:57:08.759Z,99463.48
2019-02-05T02:59:19.559Z,99460.88
2019-02-05T03:01:30.468Z,99461.67
2019-02-05T03:03:41.359Z,99464.59
2019-02-05T03:05:52.166Z,99454.79
2019-02-05T03:08:02.992Z,99459.86
2019-02-05T03:10:55.452Z,99469.19
2019-02-05T03:13:06.254Z,99458.61
2019-02-05T03:15:17.215Z,99458.67
2019-02-05T03:17:28.176Z,99465.50
2019-02-05T03:19:38.970Z,99451.51
2019-02-05T03:21:49.774Z,99460.00
2019-02-05T03:24:00.575Z,99456.19
2019-02-05T03:26:11.497Z,99461.28
2019-02-05T03:28:24.221Z,99473.17
2019-02-05T03:30:35.026Z,99480.39
2019-02-05T03:32:45.853Z,99479.51
2019-02-05T03:34:56.652Z,99479.11
2019-02-05T03:37:07.464Z,99482.52
2019-02-05T03:39:18.355Z,99498.59
2019-02-05T03:41:29.284Z,99506.66
2019-02-05T03:43:40.084Z,99500.34
2019-02-05T03:46:32.583Z,99498.64
2019-02-05T03:49:25.040Z,99491.40
2019-02-05T03:52:17.807Z,99486.14
2019-02-05T03:55:10.266Z,99485.94
2019-02-05T03:58:03.010Z,99493.39
2019-02-05T04:00:55.489Z,99505.95
2019-02-05T04:03:46.373Z,99504.25
2019-02-05T04:06:38.775Z,99501.67
2019-02-05T04:09:29.636Z,99504.17
2019-02-05T04:12:20.188Z,99506.59
2019-02-05T04:15:12.723Z,99489.92
2019-02-05T04:18:03.273Z,99485.97
2019-02-05T04:20:55.736Z,99500.34
2019-02-05T04:23:46.302Z,99507.06
2019-02-05T04:26:38.776Z,99503.30
2019-02-05T04:29:31.268Z,99513.52
2019-02-05T04:32:21.809Z,99510.27
2019-02-05T04:35:14.279Z,99504.47
2019-02-05T04:38:04.823Z,99512.19
2019-02-05T04:40:55.405Z,99517.73
2019-02-05T04:46:43.917Z,99519.30
2019-02-05T04:49:36.376Z,99520.11
2019-02-05T04:52:26.948Z,99526.38
2019-02-05T04:55:19.432Z,99527.17
2019-02-05T04:58:09.958Z,99526.61
2019-02-05T05:01:02.422Z,99526.46
2019-02-05T05:03:54.875Z,99514.66
2019-02-05T05:06:47.337Z,99514.66
2019-02-05T05:09:39.781Z,99533.36
2019-02-05T05:11:50.718Z,99533.36
2019-02-05T05:14:01.678Z,99526.20
2019-02-05T05:16:12.482Z,99537.31
2019-02-05T05:18:23.287Z,99527.58
2019-02-05T05:20:34.209Z,99529.64
2019-02-05T05:22:45.120Z,99526.15
2019-02-05T05:25:37.556Z,99541.46
2019-02-05T05:28:30.033Z,99539.40
2019-02-05T05:30:40.840Z,99532.13
2019-02-05T05:32:53.575Z,99540.06
2019-02-05T05:35:46.026Z,99535.41
2019-02-05T05:37:56.860Z,99538.02
2019-02-05T05:40:07.744Z,99540.55
2019-02-05T05:42:18.585Z,99540.56
2019-02-05T05:44:51.166Z,99545.06
2019-02-05T05:47:02.003Z,99545.06
2019-02-05T05:49:12.896Z,99548.11
2019-02-05T05:51:25.601Z,99536.94
2019-02-05T05:53:36.419Z,99544.99
2019-02-05T05:55:47.217Z,99550.14
2019-02-05T05:57:58.034Z,99557.38
2019-02-05T06:00:50.483Z,99550.13
2019-02-05T06:03:01.325Z,99554.31
2019-02-05T06:05:55.677Z,99547.95
2019-02-05T06:08:26.409Z,99546.63
2019-02-05T06:10:37.236Z,99546.63
2019-02-05T06:12:48.053Z,99556.74
2019-02-05T06:14:58.845Z,99557.69
2019-02-05T06:17:09.651Z,99559.51
2019-02-05T06:19:20.589Z,99561.31
2019-02-05T06:21:31.561Z,99569.05
2019-02-05T06:23:42.583Z,99568.36
2019-02-05T06:25:53.481Z,99573.55
2019-02-05T06:30:42.979Z,99570.17
2019-02-05T06:32:53.993Z,99582.98
2019-02-05T06:35:46.462Z,99580.02
2019-02-05T06:37:57.366Z,99585.95
2019-02-05T06:40:28.082Z,99580.81
2019-02-05T06:42:38.899Z,99586.73
2019-02-05T06:44:49.828Z,99595.70
2019-02-05T06:47:00.613Z,99596.19
2019-02-05T06:49:11.430Z,99607.30
2019-02-05T06:51:22.220Z,99610.64
2019-02-05T06:53:33.029Z,99605.98
2019-02-05T06:55:43.840Z,99606.92
2019-02-05T06:57:54.642Z,99606.08
2019-02-05T07:00:47.134Z,99607.73
2019-02-05T07:02:58.442Z,99603.06
2019-02-05T07:05:50.924Z,99607.73
2019-02-05T07:08:02.049Z,99617.33
2019-02-05T07:10:54.540Z,99624.09
2019-02-05T07:13:46.998Z,99619.26
2019-02-05T07:15:57.833Z,99623.03
2019-02-05T07:18:08.604Z,99621.70
2019-02-05T07:20:21.433Z,99623.08
2019-02-05T07:22:32.455Z,99630.77
2019-02-05T07:24:43.335Z,99629.23
2019-02-05T07:26:54.160Z,99638.67
2019-02-05T07:29:04.958Z,99629.02
2019-02-05T07:31:15.756Z,99635.08
2019-02-05T07:33:26.620Z,99630.94
2019-02-05T07:35:37.428Z,99628.05
2019-02-05T07:37:48.422Z,99628.10
2019-02-05T07:40:01.131Z,99634.09
2019-02-05T07:42:11.974Z,99639.23
2019-02-05T07:44:22.766Z,99637.16
2019-02-05T07:46:33.606Z,99637.16
2019-02-05T07:48:44.519Z,99639.34
2019-02-05T07:50:55.427Z,99638.10
2019-02-05T07:53:06.249Z,99636.92
2019-02-05T07:55:17.056Z,99637.39
2019-02-05T07:57:29.785Z,99635.73
2019-02-05T07:59:40.580Z,99632.39
2019-02-05T08:01:51.416Z,99643.95
2019-02-05T08:04:43.882Z,99646.62
2019-02-05T08:06:54.699Z,99637.09
2019-02-05T08:09:49.055Z,99632.81
2019-02-05T08:11:59.991Z,99624.72
2019-02-05T08:14:11.040Z,99627.73
2019-02-05T08:16:21.825Z,99636.45
2019-02-05T08:18:32.752Z,99644.59
2019-02-05T08:20:45.473Z,99644.91
2019-02-05T08:22:56.296Z,99637.07
2019-02-05T08:25:48.752Z,99635.17
2019-02-05T08:27:59.550Z,99620.00
2019-02-05T08:30:51.981Z,99618.19
2019-02-05T08:33:03.133Z,99613.77
2019-02-05T08:35:55.631Z,99605.28
2019-02-05T08:38:06.833Z,99597.90
2019-02-05T08:40:59.293Z,99615.36
2019-02-05T08:43:10.200Z,99615.56
2019-02-05T08:46:02.649Z,99617.99
2019-02-05T08:48:13.456Z,99625.86
2019-02-05T08:51:05.909Z,99622.04
2019-02-05T08:53:16.718Z,99616.91
2019-02-05T08:55:30.663Z,99616.28
2019-02-05T08:57:40.322Z,99617.63
2019-02-05T08:59:51.149Z,99619.17
2019-02-05T09:02:01.961Z,99627.30
2019-02-05T09:04:12.908Z,99631.91
2019-02-05T09:06:23.688Z,99633.89
2019-02-05T09:08:34.524Z,99645.61
2019-02-05T09:10:45.453Z,99650.86
2019-02-05T09:12:58.258Z,99641.56
2019-02-05T09:15:52.629Z,99644.39
2019-02-05T09:18:45.072Z,99645.12
2019-02-05T09:20:55.999Z,99646.98
2019-02-05T09:23:06.912Z,99648.93
2019-02-05T09:25:59.370Z,99648.93
2019-02-05T09:28:10.168Z,99648.95
2019-02-05T09:30:40.846Z,99653.59
2019-02-05T09:33:33.282Z,99655.83
2019-02-05T09:35:44.102Z,99649.16
2019-02-05T09:37:57.749Z,99653.75
2019-02-05T09:40:49.362Z,99648.16
2019-02-05T09:43:00.619Z,99645.79
2019-02-05T09:45:53.120Z,99643.06
2019-02-05T09:48:04.232Z,99642.53
2019-02-05T09:50:56.702Z,99645.09
2019-02-05T09:53:07.711Z,99652.73
2019-02-05T09:56:00.182Z,99661.77
2019-02-05T09:58:11.033Z,99658.05
2019-02-05T10:01:05.409Z,99664.48
2019-02-05T10:03:16.211Z,99670.30
2019-02-05T10:06:08.672Z,99665.70
2019-02-05T10:08:19.468Z,99661.78
2019-02-05T10:10:30.385Z,99665.73
2019-02-05T10:12:41.384Z,99670.89
2019-02-05T10:14:52.192Z,99664.20
2019-02-05T10:17:03.103Z,99669.91
2019-02-05T10:19:13.916Z,99665.09
2019-02-05T10:21:24.835Z,99668.28
2019-02-05T10:23:35.670Z,99668.80
2019-02-05T10:25:48.603Z,99674.16
2019-02-05T10:27:59.530Z,99676.55
2019-02-05T10:30:51.985Z,99669.45
2019-02-05T10:33:54.668Z,99660.72
2019-02-05T10:35:57.180Z,99646.14
2019-02-05T10:38:15.263Z,99651.11
2019-02-05T10:40:26.168Z,99644.20
2019-02-05T10:42:37.027Z,99643.16
2019-02-05T10:44:47.815Z,99641.42
2019-02-05T10:46:58.751Z,99638.42
2019-02-05T10:49:09.558Z,99639.04
2019-02-05T10:51:20.361Z,99645.48
2019-02-05T10:53:33.099Z,99644.95
2019-02-05T10:55:43.888Z,99652.91
2019-02-05T10:57:54.811Z,99646.87
2019-02-05T11:00:47.470Z,99644.48
2019-02-05T11:03:39.958Z,99650.61
2019-02-05T11:05:50.758Z,99642.80
2019-02-05T11:08:01.691Z,99641.59
2019-02-05T11:10:54.202Z,99641.59
2019-02-05T11:13:46.667Z,99645.74
2019-02-05T11:15:57.490Z,99633.61
2019-02-05T11:18:08.397Z,99628.45
2019-02-05T11:21:00.836Z,99629.97
2019-02-05T11:23:11.755Z,99624.14
2019-02-05T11:25:22.755Z,99628.69
2019-02-05T11:27:33.552Z,99628.69
2019-02-05T11:29:44.375Z,99630.30
2019-02-05T11:31:55.175Z,99630.47
2019-02-05T11:34:07.887Z,99645.02
2019-02-05T11:36:18.710Z,99640.47
2019-02-05T11:38:29.535Z,99636.06
2019-02-05T11:40:40.462Z,99640.27
2019-02-05T11:42:51.374Z,99629.77
2019-02-05T11:45:43.852Z,99631.45
2019-02-05T11:48:36.709Z,99633.70
2019-02-05T11:50:47.528Z,99631.62
2019-02-05T11:52:58.326Z,99639.00
2019-02-05T11:55:50.811Z,99633.22
2019-02-05T11:58:01.854Z,99628.41
2019-02-05T12:00:54.415Z,99634.23
2019-02-05T12:03:46.851Z,99622.17
2019-02-05T12:05:57.683Z,99625.75
2019-02-05T12:08:08.594Z,99620.97
2019-02-05T12:10:19.431Z,99618.40
2019-02-05T12:12:30.318Z,99618.58
2019-02-05T12:14:41.107Z,99617.52
2019-02-05T12:16:53.828Z,99617.91
2019-02-05T12:19:04.619Z,99623.58
2019-02-05T12:21:15.466Z,99611.67
2019-02-05T12:26:18.639Z,99614.43
2019-02-05T12:28:31.338Z,99612.06
2019-02-05T12:30:45.303Z,99607.80
2019-02-05T12:32:55.197Z,99608.66
2019-02-05T12:35:06.116Z,99609.20
2019-02-05T12:37:16.948Z,99612.19
2019-02-05T12:39:27.747Z,99602.75
2019-02-05T12:41:38.703Z,99602.43
2019-02-05T12:43:49.516Z,99610.28
2019-02-05T12:46:00.312Z,99604.16
2019-02-05T12:48:13.269Z,99605.50
2019-02-05T12:50:43.944Z,99602.25
2019-02-05T12:52:54.993Z,99597.21
2019-02-05T12:55:47.746Z,99590.81
2019-02-05T12:57:58.637Z,99595.30
2019-02-05T13:00:56.848Z,99595.63
2019-02-05T13:03:02.206Z,99590.24
2019-02-05T13:05:54.653Z,99588.40
2019-02-05T13:08:05.814Z,99584.53
2019-02-05T13:10:58.281Z,99588.40
2019-02-05T13:13:09.417Z,99583.22
2019-02-05T13:15:20.314Z,99580.70
2019-02-05T13:17:31.137Z,99579.86
2019-02-05T13:19:41.959Z,99577.29
2019-02-05T13:21:52.755Z,99574.64
2019-02-05T13:24:03.670Z,99573.81
2019-02-05T13:26:14.567Z,99573.86
2019-02-05T13:31:08.066Z,99568.89
2019-02-05T13:33:17.673Z,99573.19
2019-02-05T13:36:10.127Z,99574.44
2019-02-05T13:38:20.954Z,99573.03
2019-02-05T13:40:31.867Z,99567.97
2019-02-05T13:42:42.687Z,99564.01
2019-02-05T13:44:53.650Z,99567.19
2019-02-05T13:47:04.546Z,99564.44
2019-02-05T13:49:15.402Z,99564.34
2019-02-05T13:51:26.248Z,99565.63
2019-02-05T13:53:39.056Z,99563.99
2019-02-05T13:55:50.174Z,99560.47
2019-02-05T13:58:01.111Z,99567.31
2019-02-05T14:00:53.587Z,99568.55
2019-02-05T14:03:46.044Z,99566.45
2019-02-05T14:05:56.994Z,99572.86
2019-02-05T14:08:49.431Z,99566.45
2019-02-05T14:11:00.355Z,99570.00
2019-02-05T14:13:13.158Z,99568.81
2019-02-05T14:16:05.636Z,99571.40
2019-02-05T14:18:16.485Z,99570.95
2019-02-05T14:20:27.405Z,99577.89
2019-02-05T14:22:38.236Z,99573.69
2019-02-05T14:24:49.070Z,99570.27
2019-02-05T14:27:01.848Z,99574.07
2019-02-05T14:29:12.672Z,99576.27
2019-02-05T14:31:31.174Z,99574.52
2019-02-05T14:33:36.435Z,99572.05
2019-02-05T14:35:47.243Z,99575.14
2019-02-05T14:37:58.205Z,99576.42
2019-02-05T14:40:50.655Z,99575.73
2019-02-05T14:43:01.505Z,99570.17
2019-02-05T14:45:53.966Z,99567.51
2019-02-05T14:48:46.445Z,99565.38
2019-02-05T14:50:57.340Z,99566.27
2019-02-05T14:53:49.841Z,99571.86
2019-02-05T14:56:00.628Z,99564.94
2019-02-05T14:58:53.144Z,99567.05
2019-02-05T15:01:04.053Z,99567.45
2019-02-05T15:03:14.883Z,99569.23
2019-02-05T15:05:25.780Z,99563.23
2019-02-05T15:07:36.674Z,99568.83
2019-02-05T15:09:47.516Z,99568.49
2019-02-05T15:11:58.329Z,99559.75
2019-02-05T15:14:09.142Z,99561.13
2019-02-05T15:16:19.948Z,99559.90
2019-02-05T15:18:31.482Z,99566.27
2019-02-05T15:21:02.300Z,99564.81
2019-02-05T15:23:13.154Z,99572.30
2019-02-05T15:25:24.051Z,99572.12
2019-02-05T15:27:34.862Z,99573.55
2019-02-05T15:29:45.670Z,99572.46
2019-02-05T15:31:56.473Z,99572.63
2019-02-05T15:36:31.503Z,99570.31
2019-02-05T15:38:42.272Z,99572.21
2019-02-05T15:40:53.175Z,99565.03
2019-02-05T15:43:45.720Z,99564.28
2019-02-05T15:45:56.525Z,99566.06
2019-02-05T15:48:07.424Z,99565.77
2019-02-05T15:50:18.365Z,99568.36
2019-02-05T15:52:49.055Z,99567.61
2019-02-05T15:55:00.011Z,99557.39
2019-02-05T15:57:10.818Z,99568.55
2019-02-05T15:59:21.630Z,99562.36
2019-02-05T16:01:32.451Z,99560.38
2019-02-05T16:03:43.316Z,99563.17
2019-02-05T16:05:54.157Z,99564.27
2019-02-05T16:08:06.887Z,99563.16
2019-02-05T16:10:59.368Z,99562.11
2019-02-05T16:13:10.286Z,99563.95
2019-02-05T16:15:21.144Z,99563.81
2019-02-05T16:17:31.904Z,99566.16
2019-02-05T16:19:42.740Z,99567.17
2019-02-05T16:21:55.462Z,99574.11
2019-02-05T16:24:08.174Z,99571.98
2019-02-05T16:26:18.999Z,99574.23
2019-02-05T16:28:29.858Z,99576.05
2019-02-05T16:30:40.806Z,99581.25
2019-02-05T16:32:51.753Z,99578.73
2019-02-05T16:35:44.224Z,99582.67
2019-02-05T16:37:55.106Z,99581.91
2019-02-05T16:40:47.578Z,99587.59
2019-02-05T16:42:58.607Z,99594.02
2019-02-05T16:45:51.145Z,99589.89
2019-02-05T16:48:02.061Z,99593.04
2019-02-05T16:50:54.611Z,99596.22
2019-02-05T16:53:47.067Z,99593.81
2019-02-05T16:55:57.888Z,99605.47
2019-02-05T16:58:08.924Z,99606.86
2019-02-05T17:01:01.404Z,99605.18
2019-02-05T17:03:12.317Z,99607.82
2019-02-05T17:06:04.786Z,99611.70
2019-02-05T17:08:15.693Z,99610.01
2019-02-05T17:10:26.600Z,99608.38
2019-02-05T17:12:37.460Z,99605.83
2019-02-05T17:14:50.174Z,99603.73
2019-02-05T17:17:03.135Z,99609.34
2019-02-05T17:19:14.022Z,99612.41
2019-02-05T17:21:24.849Z,99609.87
2019-02-05T17:23:35.699Z,99610.29
2019-02-05T17:25:46.799Z,99607.72
2019-02-05T17:28:39.273Z,99609.83
2019-02-05T17:30:50.479Z,99607.30
2019-02-05T17:33:01.442Z,99608.64
2019-02-05T17:35:53.929Z,99613.77
2019-02-05T17:38:46.430Z,99616.75
2019-02-05T17:40:57.242Z,99616.34
2019-02-05T17:43:08.066Z,99621.06
2019-02-05T17:45:39.370Z,99614.69
2019-02-05T17:47:50.397Z,99619.81
2019-02-05T17:50:01.306Z,99616.84
2019-02-05T17:52:12.126Z,99624.48
2019-02-05T17:54:23.103Z,99625.37
2019-02-05T17:56:33.907Z,99627.06
2019-02-05T17:58:44.708Z,99622.38
2019-02-05T18:03:17.632Z,99627.52
2019-02-05T18:05:28.518Z,99633.06
2019-02-05T18:07:41.345Z,99634.77
2019-02-05T18:09:52.190Z,99642.01
2019-02-05T18:12:44.655Z,99640.73
2019-02-05T18:14:55.535Z,99644.58
2019-02-05T18:17:06.431Z,99638.16
2019-02-05T18:19:17.332Z,99637.31
2019-02-05T18:21:28.366Z,99639.89
2019-02-05T18:23:39.187Z,99641.59
2019-02-05T18:28:07.416Z,99640.25
2019-02-05T18:30:59.961Z,99653.48
2019-02-05T18:33:10.880Z,99647.94
2019-02-05T18:35:21.746Z,99655.14
2019-02-05T18:37:34.506Z,99651.75
2019-02-05T18:39:47.211Z,99661.97
2019-02-05T18:41:58.167Z,99660.27
2019-02-05T18:44:08.984Z,99659.83
2019-02-05T18:46:19.885Z,99655.99
2019-02-05T18:50:48.266Z,99653.03
2019-02-05T18:52:59.347Z,99658.17
2019-02-05T18:55:10.705Z,99652.19
2019-02-05T18:57:23.027Z,99649.64
2019-02-05T18:59:33.814Z,99651.36
2019-02-05T19:01:44.859Z,99651.77
2019-02-05T19:03:57.559Z,99650.45
2019-02-05T19:06:08.377Z,99655.09
2019-02-05T19:08:19.226Z,99653.34
2019-02-05T19:11:11.675Z,99655.87
2019-02-05T19:13:22.543Z,99649.05
2019-02-05T19:16:15.020Z,99652.05
2019-02-05T19:20:42.820Z,99648.22
2019-02-05T19:22:53.722Z,99643.94
2019-02-05T19:25:46.202Z,99647.73
2019-02-05T19:27:57.008Z,99648.11
2019-02-05T19:30:49.510Z,99652.37
2019-02-05T19:33:00.408Z,99650.66
2019-02-05T19:37:28.612Z,99655.23
2019-02-05T19:39:39.567Z,99655.62
2019-02-05T19:41:50.384Z,99656.89
2019-02-05T19:44:01.239Z,99660.30
2019-02-05T19:51:17.054Z,99651.43
2019-02-05T19:53:27.885Z,99648.88
2019-02-05T19:55:40.734Z,99651.80
2019-02-05T19:57:52.519Z,99647.11
2019-02-05T20:00:24.321Z,99635.59
2019-02-05T20:02:35.179Z,99636.84
2019-02-05T20:04:46.111Z,99630.88
2019-02-05T20:06:56.906Z,99630.89
2019-02-05T20:09:49.425Z,99627.49
2019-02-05T20:12:00.325Z,99630.84
2019-02-05T20:14:11.142Z,99634.30
2019-02-05T20:16:22.012Z,99629.19
2019-02-05T20:18:32.935Z,99630.04
2019-02-05T20:20:43.858Z,99628.72
2019-02-05T20:22:54.782Z,99629.17
2019-02-05T20:25:47.328Z,99636.84
2019-02-05T20:27:58.162Z,99638.14
2019-02-05T20:30:50.638Z,99634.70
2019-02-05T20:33:01.460Z,99632.98
2019-02-05T20:35:14.274Z,99630.88
2019-02-05T20:37:25.161Z,99635.10
2019-02-05T20:39:35.963Z,99635.11
2019-02-05T20:41:46.886Z,99633.80
2019-02-05T20:43:57.771Z,99635.93
2019-02-05T20:46:08.601Z,99633.41
2019-02-05T20:48:19.446Z,99638.10
2019-02-05T20:50:30.255Z,99638.59
2019-02-05T20:52:43.288Z,99643.75
2019-02-05T20:54:56.116Z,99641.66
2019-02-05T20:57:06.988Z,99642.94
2019-02-05T20:59:17.769Z,99644.63
2019-02-05T21:01:28.569Z,99639.08
2019-02-05T21:03:39.388Z,99635.70
2019-02-05T21:05:50.195Z,99638.52
2019-02-05T21:08:01.039Z,99642.02
2019-02-05T21:10:31.735Z,99643.73
2019-02-05T21:12:42.563Z,99649.23
2019-02-05T21:14:53.371Z,99651.73
2019-02-05T21:17:04.365Z,99653.78
2019-02-05T21:19:58.831Z,99650.77
2019-02-05T21:22:09.638Z,99652.42
2019-02-05T21:24:20.552Z,99655.66
2019-02-05T21:26:31.387Z,99649.61
2019-02-05T21:28:42.262Z,99658.03
2019-02-05T21:30:53.068Z,99664.30
2019-02-05T21:33:05.774Z,99669.33
2019-02-05T21:35:36.842Z,99675.58
2019-02-05T21:37:47.658Z,99675.58
2019-02-05T21:40:02.441Z,99675.16
2019-02-05T21:42:13.223Z,99672.14
2019-02-05T21:44:24.023Z,99677.67
2019-02-05T21:46:34.842Z,99680.06
2019-02-05T21:48:45.698Z,99675.64
2019-02-05T21:50:56.548Z,99677.60
2019-02-05T21:53:07.416Z,99668.98
2019-02-05T21:55:59.871Z,99668.50
2019-02-05T21:58:12.532Z,99669.27
2019-02-05T22:00:43.445Z,99682.31
2019-02-05T22:02:54.620Z,99675.09
2019-02-05T22:05:47.234Z,99677.19
2019-02-05T22:07:58.199Z,99678.03
2019-02-05T22:10:50.738Z,99674.14
2019-02-05T22:13:01.640Z,99668.52
2019-02-05T22:15:56.011Z,99665.86
2019-02-05T22:18:06.831Z,99661.95
2019-02-05T22:20:37.511Z,99655.01
2019-02-05T22:22:48.766Z,99652.80
2019-02-05T22:27:40.753Z,99645.08
2019-02-05T22:29:51.547Z,99642.19
2019-02-05T22:32:02.570Z,99646.01
2019-02-05T22:34:13.393Z,99636.28
2019-02-05T22:36:24.181Z,99640.14
2019-02-05T22:38:35.015Z,99637.09
2019-02-05T22:40:45.798Z,99637.05
2019-02-05T22:42:58.571Z,99634.39
2019-02-05T22:45:51.000Z,99629.30
2019-02-05T22:48:01.916Z,99630.17
2019-02-05T22:50:54.382Z,99634.47
2019-02-05T22:53:47.154Z,99638.67
2019-02-05T22:55:57.949Z,99636.13
2019-02-05T22:58:50.417Z,99628.74
2019-02-05T23:01:42.902Z,99628.28
2019-02-05T23:04:35.374Z,99626.19
2019-02-05T23:07:27.825Z,99631.29
2019-02-05T23:10:20.285Z,99629.92
2019-02-05T23:13:12.740Z,99626.45
2019-02-05T23:15:23.666Z,99622.20
2019-02-05T23:17:34.517Z,99620.97
2019-02-05T23:19:45.313Z,99614.99
2019-02-05T23:21:56.205Z,99617.71
2019-02-05T23:24:07.108Z,99613.23
2019-02-05T23:26:17.936Z,99604.43
2019-02-05T23:28:28.855Z,99604.92
2019-02-05T23:30:39.769Z,99601.95
2019-02-05T23:32:52.553Z,99601.53
2019-02-05T23:35:45.015Z,99603.65
2019-02-05T23:37:55.846Z,99599.38
2019-02-05T23:40:48.274Z,99595.48
2019-02-05T23:42:59.094Z,99588.22
2019-02-05T23:45:29.780Z,99582.70
2019-02-05T23:47:40.579Z,99590.70
2019-02-05T23:49:51.403Z,99599.15
2019-02-05T23:52:02.505Z,99597.45
2019-02-05T23:54:13.338Z,99598.26
2019-02-05T23:56:25.567Z,99599.95
2019-02-05T23:58:36.957Z,99603.05
